Time;durP1;ratioP1;P1;durP2;ratioP2;P2;SDS_P1;SDS_P2;PMS_P1;PMS_P2;Temp;Humidity;BMP_temperature;BMP_pressure;BME280_temperature;BME280_humidity;BME280_pressure;Samples;Min_cycle;Max_cycle;Signal;HPM_P1;HPM_P2
2022/09/27 00:01:09;;;;;;;30.75;4.90;;;;;;;10.60;91.15;99876.38;4813891;29;20042;-90
2022/09/27 00:03:35;;;;;;;30.98;5.35;;;;;;;10.57;91.13;99865.28;4829040;29;20048;-90
2022/09/27 00:06:06;;;;;;;24.60;5.20;;;;;;;10.53;91.32;99870.03;4860848;29;20391;-90
2022/09/27 00:08:34;;;;;;;31.60;4.55;;;;;;;10.57;91.33;99874.03;4831139;29;20122;-89
2022/09/27 00:11:13;;;;;;;25.08;4.50;;;;;;;10.52;91.21;99865.75;4814863;29;20404;-92
2022/09/27 00:13:39;;;;;;;36.45;6.38;;;;;;;10.55;91.33;99860.16;4824677;29;20033;-90
2022/09/27 00:16:05;;;;;;;30.73;5.07;;;;;;;10.54;90.95;99858.50;4806062;29;20045;-88
2022/09/27 00:18:32;;;;;;;38.72;5.88;;;;;;;10.57;91.01;99850.25;4839256;29;20178;-88
2022/09/27 00:21:06;;;;;;;34.55;5.22;;;;;;;10.56;91.16;99847.78;4850983;29;20045;-90
2022/09/27 00:23:33;;;;;;;29.23;5.30;;;;;;;10.50;91.54;99847.41;4845053;29;20129;-89
2022/09/27 00:26:00;;;;;;;37.25;6.32;;;;;;;10.53;91.77;99854.19;4813167;29;20415;-89
2022/09/27 00:28:27;;;;;;;26.30;4.65;;;;;;;10.51;91.68;99854.34;4825150;29;20482;-91
2022/09/27 00:30:53;;;;;;;30.15;4.28;;;;;;;10.44;91.62;99848.03;4859499;29;20033;-87
2022/09/27 00:33:19;;;;;;;41.30;5.80;;;;;;;10.42;91.83;99837.59;4828079;29;20052;-89
2022/09/27 00:35:45;;;;;;;30.70;4.47;;;;;;;10.47;92.04;99839.81;4828741;29;20510;-88
2022/09/27 00:38:12;;;;;;;24.38;4.20;;;;;;;10.49;91.94;99837.00;4828635;29;20495;-89
2022/09/27 00:40:38;;;;;;;32.53;6.10;;;;;;;10.48;92.28;99819.50;4812223;29;20037;-90
2022/09/27 00:43:23;;;;;;;34.70;5.25;;;;;;;10.48;92.10;99824.78;4818741;29;20493;-90
2022/09/27 00:46:07;;;;;;;35.20;6.25;;;;;;;10.47;92.13;99820.47;4813039;29;20029;-91
2022/09/27 00:48:35;;;;;;;26.58;4.05;;;;;;;10.52;92.31;99828.75;4826754;29;20036;-89
2022/09/27 00:51:04;;;;;;;38.63;6.07;;;;;;;10.51;92.63;99833.22;4843466;29;20053;-90
2022/09/27 00:53:45;;;;;;;27.00;4.63;;;;;;;10.50;92.84;99828.91;4830136;29;20041;-90
2022/09/27 00:56:26;;;;;;;33.55;4.95;;;;;;;10.46;92.74;99822.31;4856719;29;20114;-88
2022/09/27 00:59:04;;;;;;;43.30;4.70;;;;;;;10.48;92.89;99820.31;4815513;29;20041;-89
2022/09/27 01:01:30;;;;;;;28.05;5.45;;;;;;;10.50;92.88;99821.00;4819224;29;20458;-89
2022/09/27 01:04:21;;;;;;;34.08;5.53;;;;;;;10.53;92.35;99820.66;4829310;29;20123;-90
2022/09/27 01:06:47;;;;;;;30.67;5.32;;;;;;;10.52;92.60;99831.41;4827397;29;20472;-90
2022/09/27 01:09:13;;;;;;;40.72;5.05;;;;;;;10.50;92.61;99826.28;4825592;29;20037;-89
2022/09/27 01:11:42;;;;;;;34.47;4.93;;;;;;;10.49;92.47;99827.28;4832838;29;20037;-91
2022/09/27 01:14:35;;;;;;;30.73;5.10;;;;;;;10.49;92.50;99829.91;4813868;29;20519;-89
2022/09/27 01:17:16;;;;;;;31.63;5.05;;;;;;;10.50;92.35;99826.28;4817068;29;20125;-91
2022/09/27 01:19:50;;;;;;;34.90;4.93;;;;;;;10.51;92.56;99821.81;4811774;29;20042;-89
2022/09/27 01:22:37;;;;;;;38.08;5.28;;;;;;;10.47;92.67;99823.94;4824367;29;20052;-91
2022/09/27 01:25:24;;;;;;;31.90;4.72;;;;;;;10.46;92.60;99806.47;4824156;29;20050;-90
2022/09/27 01:28:15;;;;;;;34.80;6.78;;;;;;;10.43;92.89;99802.28;4823827;29;20769;-90
2022/09/27 01:31:21;;;;;;;44.75;5.10;;;;;;;10.40;93.01;99797.31;4833334;29;20482;-89
2022/09/27 01:34:15;;;;;;;30.60;5.20;;;;;;;10.42;93.07;99794.50;4837048;29;20054;-89
2022/09/27 01:36:50;;;;;;;35.50;5.60;;;;;;;10.42;93.27;99789.22;4826588;29;20096;-88
2022/09/27 01:39:35;;;;;;;39.88;5.63;;;;;;;10.43;93.33;99785.59;4845260;29;20410;-83
2022/09/27 01:42:34;;;;;;;30.67;5.32;;;;;;;10.44;93.16;99781.97;4825919;29;20140;-83
2022/09/27 01:45:08;;;;;;;38.88;5.38;;;;;;;10.46;92.81;99779.16;4843527;29;20399;-91
2022/09/27 01:47:49;;;;;;;40.92;6.35;;;;;;;10.41;93.06;99783.13;4835405;29;20121;-89
2022/09/27 01:50:44;;;;;;;26.48;4.75;;;;;;;10.41;93.15;99775.19;4843697;29;20037;-90
2022/09/27 01:53:22;;;;;;;26.50;5.28;;;;;;;10.40;93.12;99770.06;4839582;29;20045;-90
2022/09/27 01:56:36;;;;;;;29.23;4.82;;;;;;;10.38;93.53;99772.03;4831099;29;20105;-91
2022/09/27 01:59:14;;;;;;;31.05;4.97;;;;;;;10.36;93.84;99768.72;4832961;29;20049;-91
2022/09/27 02:01:50;;;;;;;29.98;5.38;;;;;;;10.38;94.09;99766.75;4842991;29;20045;-90
2022/09/27 02:04:23;;;;;;;33.25;5.82;;;;;;;10.35;94.38;99767.88;4832477;29;20037;-90
2022/09/27 02:07:17;;;;;;;40.17;5.82;;;;;;;10.29;94.99;99774.66;4844697;29;20037;-90
2022/09/27 02:09:58;;;;;;;40.35;6.32;;;;;;;10.28;95.33;99765.06;4849608;29;20045;-90
2022/09/27 02:12:51;;;;;;;37.22;5.00;;;;;;;10.26;96.07;99760.91;4814245;29;20033;-90
2022/09/27 02:15:17;;;;;;;31.33;4.70;;;;;;;10.28;96.38;99782.72;4839260;29;20041;-90
2022/09/27 02:18:07;;;;;;;40.30;5.47;;;;;;;10.28;96.61;99774.81;4828511;29;20407;-90
2022/09/27 02:20:40;;;;;;;37.28;5.20;;;;;;;10.34;97.03;99754.84;4827838;29;20045;-92
2022/09/27 02:23:30;;;;;;;36.08;6.18;;;;;;;10.32;96.58;99755.00;4826687;29;20054;-91
2022/09/27 02:26:42;;;;;;;27.50;4.30;;;;;;;10.31;97.07;99758.63;4827726;29;20053;-89
2022/09/27 02:29:28;;;;;;;47.50;6.22;;;;;;;10.29;97.61;99756.16;4810929;29;20102;-90
2022/09/27 02:31:54;;;;;;;35.25;4.72;;;;;;;10.29;97.94;99752.69;4840764;29;20049;-91
2022/09/27 02:34:28;;;;;;;38.08;5.60;;;;;;;10.33;97.56;99751.38;4831139;29;20037;-91
2022/09/27 02:36:54;;;;;;;40.25;6.05;;;;;;;10.34;98.14;99742.47;4822382;29;20046;-90
2022/09/27 02:39:20;;;;;;;41.65;5.93;;;;;;;10.37;97.91;99752.72;4840677;29;20037;-89
2022/09/27 02:41:51;;;;;;;47.72;5.40;;;;;;;10.33;98.18;99735.53;4840694;29;20072;-92
2022/09/27 02:44:20;;;;;;;39.75;5.93;;;;;;;10.36;98.31;99743.16;4837246;29;20444;-90
2022/09/27 02:47:11;;;;;;;41.80;6.30;;;;;;;10.36;98.44;99743.16;4822861;29;20034;-89
2022/09/27 02:50:08;;;;;;;38.53;6.88;;;;;;;10.30;98.46;99735.88;4828473;29;20046;-90
2022/09/27 02:53:06;;;;;;;46.95;6.90;;;;;;;10.28;99.14;99748.41;4832691;29;20479;-91
2022/09/27 02:56:09;;;;;;;32.92;4.97;;;;;;;10.26;99.51;99732.69;4845312;29;20050;-91
2022/09/27 02:59:08;;;;;;;26.25;4.50;;;;;;;10.29;99.94;99726.25;4836136;29;20065;-90
2022/09/27 03:02:13;;;;;;;31.83;4.70;;;;;;;10.33;99.48;99713.56;4839562;29;20037;-92
2022/09/27 03:05:07;;;;;;;29.42;5.95;;;;;;;10.33;99.25;99710.94;4821079;29;20094;-89
2022/09/27 03:07:34;;;;;;;37.15;5.40;;;;;;;10.30;99.65;99723.47;4830477;29;20386;-90
2022/09/27 03:09:59;;;;;;;35.35;5.90;;;;;;;10.30;99.45;99706.81;4828055;29;20038;-91
2022/09/27 03:12:26;;;;;;;31.95;5.70;;;;;;;10.32;99.28;99698.72;4851293;29;20034;-89
2022/09/27 03:14:57;;;;;;;51.05;7.70;;;;;;;10.34;99.78;99702.00;4852049;29;20046;-92
2022/09/27 03:17:42;;;;;;;37.83;5.22;;;;;;;10.33;99.51;99698.56;4845463;29;20125;-92
2022/09/27 03:20:26;;;;;;;37.92;5.20;;;;;;;10.31;100.00;99689.97;4832245;29;20041;-92
2022/09/27 03:23:03;;;;;;;41.10;5.85;;;;;;;10.40;99.70;99694.28;4817982;29;20395;-88
2022/09/27 03:25:29;;;;;;;43.17;6.22;;;;;;;10.44;99.28;99684.22;4821979;29;20038;-91
2022/09/27 03:27:54;;;;;;;42.20;6.72;;;;;;;10.42;99.16;99686.19;4830323;29;20045;-90
2022/09/27 03:30:20;;;;;;;38.65;5.22;;;;;;;10.47;99.04;99683.91;4815905;29;20048;-92
2022/09/27 03:32:46;;;;;;;39.33;5.30;;;;;;;10.49;99.38;99676.66;4834358;29;20049;-92
2022/09/27 03:35:15;;;;;;;34.75;6.22;;;;;;;10.50;99.01;99682.75;4859980;29;20049;-92
2022/09/27 03:37:41;;;;;;;33.85;4.75;;;;;;;10.50;99.26;99680.13;4828119;29;20041;-91
2022/09/27 03:40:08;;;;;;;34.83;5.60;;;;;;;10.51;99.47;99677.31;4834273;29;20215;-92
2022/09/27 03:42:34;;;;;;;43.05;5.60;;;;;;;10.55;99.33;99685.75;4843894;29;20505;-91
2022/09/27 03:45:00;;;;;;;41.00;6.55;;;;;;;10.56;99.11;99679.47;4827092;29;20034;-92
2022/09/27 03:47:26;;;;;;;33.78;5.63;;;;;;;10.58;98.91;99681.94;4843520;29;20483;-92
2022/09/27 03:49:52;;;;;;;43.45;5.82;;;;;;;10.52;98.94;99672.88;4850992;29;20038;-92
2022/09/27 03:52:18;;;;;;;36.55;6.03;;;;;;;10.54;98.89;99684.09;4841893;29;20030;-93
2022/09/27 03:54:44;;;;;;;36.63;4.78;;;;;;;10.50;98.70;99682.75;4823327;29;20053;-93
2022/09/27 03:57:10;;;;;;;32.38;5.57;;;;;;;10.51;98.46;99679.94;4830244;29;20053;-93
2022/09/27 03:59:37;;;;;;;35.17;5.22;;;;;;;10.46;98.55;99678.78;4836933;29;20116;-92
2022/09/27 04:02:32;;;;;;;35.25;5.13;;;;;;;10.42;98.19;99673.81;4826613;29;20136;-92
2022/09/27 04:05:16;;;;;;;38.80;4.95;;;;;;;10.36;98.56;99670.97;4815683;29;20499;-92
2022/09/27 04:07:47;;;;;;;34.13;4.72;;;;;;;10.34;98.29;99673.78;4831836;29;20045;-92
2022/09/27 04:10:15;;;;;;;34.10;5.10;;;;;;;10.35;98.79;99666.69;4842445;29;20124;-91
2022/09/27 04:12:43;;;;;;;40.10;6.28;;;;;;;10.29;98.89;99654.94;4831312;29;20611;-92
2022/09/27 04:15:09;;;;;;;37.70;5.72;;;;;;;10.29;98.88;99669.00;4832393;29;20096;-92
2022/09/27 04:17:47;;;;;;;42.60;5.53;;;;;;;10.24;98.96;99670.47;4832607;29;20128;-91
2022/09/27 04:20:36;;;;;;;37.70;5.65;;;;;;;10.24;99.41;99667.84;4836152;29;20041;-90
2022/09/27 04:23:08;;;;;;;32.72;6.00;;;;;;;10.25;99.13;99669.47;4834449;29;20124;-92
2022/09/27 04:25:38;;;;;;;36.17;5.63;;;;;;;10.22;99.33;99651.31;4843883;29;20025;-92
2022/09/27 04:28:14;;;;;;;26.45;4.47;;;;;;;10.22;99.39;99660.06;4852632;29;20105;-92
2022/09/27 04:30:40;;;;;;;31.30;5.32;;;;;;;10.27;99.08;99660.41;4827551;29;20193;-91
2022/09/27 04:33:08;;;;;;;29.38;5.40;;;;;;;10.28;99.08;99661.22;4853235;29;20048;-91
2022/09/27 04:38:39;;;;;;;34.08;5.20;;;;;;;10.26;99.55;99656.09;4854716;29;20045;-91
2022/09/27 04:41:07;;;;;;;37.63;5.28;;;;;;;10.29;99.63;99668.16;4828901;29;20053;-91
2022/09/27 04:43:35;;;;;;;31.65;4.93;;;;;;;10.28;99.82;99650.66;4834547;29;20069;-91
2022/09/27 04:46:02;;;;;;;36.30;5.57;;;;;;;10.32;99.90;99644.06;4814154;29;20049;-91
2022/09/27 04:48:28;;;;;;;37.95;5.80;;;;;;;10.30;99.92;99640.78;4826409;29;20057;-91
2022/09/27 04:51:01;;;;;;;39.97;6.55;;;;;;;10.33;100.00;99643.09;4841384;29;20776;-91
2022/09/27 04:53:30;;;;;;;34.75;5.78;;;;;;;10.31;100.00;99647.69;4824942;29;20124;-91
2022/09/27 04:56:03;;;;;;;38.85;6.88;;;;;;;10.26;100.00;99627.06;4840792;29;20042;-90
2022/09/27 04:58:29;;;;;;;30.52;4.88;;;;;;;10.27;100.00;99628.69;4819312;29;20038;-91
2022/09/27 05:00:56;;;;;;;38.33;5.20;;;;;;;10.32;100.00;99627.41;4827224;29;20034;-91
2022/09/27 05:03:51;;;;;;;28.42;4.57;;;;;;;10.27;100.00;99626.06;4780185;29;20138;-90
2022/09/27 05:06:17;;;;;;;45.65;5.85;;;;;;;10.29;100.00;99645.22;4814202;29;20510;-92
2022/09/27 05:08:44;;;;;;;30.55;4.53;;;;;;;10.32;100.00;99644.06;4822462;29;20038;-92
2022/09/27 05:11:30;;;;;;;33.10;5.15;;;;;;;10.34;100.00;99646.53;4834849;29;20044;-91
2022/09/27 05:14:25;;;;;;;33.05;5.40;;;;;;;10.33;100.00;99627.25;4831516;29;20033;-91
2022/09/27 05:17:08;;;;;;;38.03;5.53;;;;;;;10.36;100.00;99632.19;4825479;29;20042;-92
2022/09/27 05:19:58;;;;;;;37.17;4.90;;;;;;;10.38;100.00;99621.47;4837207;29;20053;-91
2022/09/27 05:22:32;;;;;;;41.03;5.95;;;;;;;10.38;100.00;99624.91;4819163;29;20497;-92
2022/09/27 05:24:58;;;;;;;26.35;4.63;;;;;;;10.38;100.00;99614.34;4830603;29;20042;-92
2022/09/27 05:27:29;;;;;;;31.58;4.75;;;;;;;10.40;100.00;99603.66;4843505;29;20049;-91
2022/09/27 05:30:00;;;;;;;36.78;5.22;;;;;;;10.41;100.00;99600.00;4784512;29;20034;-92
2022/09/27 05:32:34;;;;;;;26.70;4.20;;;;;;;10.45;100.00;99603.97;4814340;29;20056;-91
2022/09/27 05:35:20;;;;;;;;;;;;;;;10.34;100.00;99593.72;4821780;29;20034;-91
2022/09/27 05:37:58;;;;;;;38.63;5.18;;;;;;;10.39;100.00;99591.41;4828653;29;19924;-90
2022/09/27 05:40:25;;;;;;;38.63;4.97;;;;;;;10.38;100.00;99598.50;4850818;29;20490;-91
2022/09/27 05:42:52;;;;;;;33.95;5.30;;;;;;;10.40;100.00;99595.72;4833019;29;20410;-92
2022/09/27 05:45:19;;;;;;;40.50;6.22;;;;;;;10.37;100.00;99588.09;4833307;29;20414;-91
2022/09/27 05:47:56;;;;;;;30.80;5.05;;;;;;;10.37;100.00;99588.94;4828586;29;20033;-90
2022/09/27 05:50:24;;;;;;;39.42;5.05;;;;;;;10.35;100.00;99576.88;4828777;29;20037;-92
2022/09/27 05:52:49;;;;;;;40.78;6.03;;;;;;;10.38;100.00;99577.38;4818161;29;20045;-89
2022/09/27 05:55:18;;;;;;;32.15;5.35;;;;;;;10.40;100.00;99577.22;4828886;29;20106;-92
2022/09/27 05:58:05;;;;;;;37.72;5.53;;;;;;;10.42;100.00;99577.88;4828137;29;20060;-90
2022/09/27 06:00:43;;;;;;;41.50;4.63;;;;;;;10.43;100.00;99577.69;4822630;29;20072;-92
2022/09/27 06:03:28;;;;;;;34.10;5.05;;;;;;;10.44;100.00;99565.31;4840893;29;20101;-93
2022/09/27 06:06:14;;;;;;;39.83;6.22;;;;;;;10.50;100.00;99585.00;4847593;29;20040;-88
2022/09/27 06:08:45;;;;;;;31.95;4.97;;;;;;;10.52;100.00;99580.38;4822796;29;20041;-91
2022/09/27 06:11:15;;;;;;;29.35;3.92;;;;;;;10.54;100.00;99586.34;4835969;29;20026;-92
2022/09/27 06:13:41;;;;;;;46.40;6.63;;;;;;;10.55;100.00;99582.69;4831704;29;20039;-91
2022/09/27 06:16:10;;;;;;;43.30;5.65;;;;;;;10.58;100.00;99578.88;4829648;29;20439;-92
2022/09/27 06:18:38;;;;;;;42.40;5.57;;;;;;;10.58;100.00;99571.78;4827542;29;20099;-92
2022/09/27 06:21:05;;;;;;;38.38;5.75;;;;;;;10.62;100.00;99588.16;4846748;29;20037;-91
2022/09/27 06:23:31;;;;;;;29.75;5.18;;;;;;;10.66;100.00;99584.16;4809052;29;20125;-93
2022/09/27 06:26:04;;;;;;;31.95;5.25;;;;;;;10.70;100.00;99592.59;4822257;29;20490;-89
2022/09/27 06:28:39;;;;;;;35.15;5.60;;;;;;;10.73;100.00;99587.81;4837377;29;20116;-90
2022/09/27 06:31:10;;;;;;;32.03;5.28;;;;;;;10.76;100.00;99582.19;4840947;29;20044;-92
2022/09/27 06:33:59;;;;;;;34.75;5.15;;;;;;;10.75;100.00;99566.50;4836592;29;20108;-92
2022/09/27 06:36:26;;;;;;;35.65;5.20;;;;;;;10.78;100.00;99563.53;4855799;29;20380;-92
2022/09/27 06:38:52;;;;;;;32.45;4.72;;;;;;;10.85;100.00;99576.88;4829833;29;20065;-92
2022/09/27 06:41:26;;;;;;;37.83;5.47;;;;;;;10.82;100.00;99575.41;4831978;29;20502;-91
2022/09/27 06:44:04;;;;;;;27.70;4.50;;;;;;;10.86;100.00;99570.63;4816434;29;20053;-91
2022/09/27 06:46:52;;;;;;;24.33;4.68;;;;;;;10.90;100.00;99569.28;4847055;29;20110;-90
2022/09/27 06:49:43;;;;;;;31.45;5.30;;;;;;;10.92;100.00;99570.75;4824665;29;20486;-89
2022/09/27 06:52:10;;;;;;;30.92;4.93;;;;;;;10.94;100.00;99560.00;4828500;29;20046;-92
2022/09/27 06:54:36;;;;;;;21.38;3.72;;;;;;;10.99;100.00;99573.56;4836547;29;20034;-92
2022/09/27 06:57:02;;;;;;;33.35;4.93;;;;;;;11.01;100.00;99560.16;4815796;29;20033;-91
2022/09/27 07:02:31;;;;;;;27.95;4.18;;;;;;;11.05;100.00;99550.91;4846413;29;20040;-90
2022/09/27 07:05:17;;;;;;;34.70;4.72;;;;;;;11.06;100.00;99555.19;4828357;29;20034;-92
2022/09/27 07:08:01;;;;;;;29.77;4.65;;;;;;;11.08;100.00;99561.16;4822622;29;20131;-91
2022/09/27 07:10:29;;;;;;;23.67;4.38;;;;;;;11.13;100.00;99553.50;4832740;29;20041;-91
2022/09/27 07:12:55;;;;;;;28.48;4.38;;;;;;;11.15;100.00;99555.97;4836875;29;20171;-91
2022/09/27 07:15:23;;;;;;;24.52;4.75;;;;;;;11.17;100.00;99554.00;4846131;29;20040;-91
2022/09/27 07:17:57;;;;;;;25.38;3.83;;;;;;;11.20;100.00;99560.75;4829021;29;20044;-91
2022/09/27 07:20:26;;;;;;;20.65;3.25;;;;;;;11.21;100.00;99570.38;4831164;29;20038;-91
2022/09/27 07:22:52;;;;;;;20.88;3.33;;;;;;;11.25;100.00;99574.31;4832168;29;20041;-90
2022/09/27 07:25:18;;;;;;;24.55;3.80;;;;;;;11.29;99.84;99571.16;4828064;29;20435;-91
2022/09/27 07:27:44;;;;;;;29.85;4.60;;;;;;;11.32;99.40;99571.81;4828962;29;20081;-92
2022/09/27 07:30:11;;;;;;;23.60;3.90;;;;;;;11.31;99.01;99575.47;4858380;29;20048;-91
2022/09/27 07:32:37;;;;;;;27.48;4.38;;;;;;;11.32;98.72;99563.88;4828734;29;20086;-90
2022/09/27 07:35:07;;;;;;;21.55;2.85;;;;;;;11.34;98.46;99575.13;4859037;29;20073;-89
2022/09/27 07:37:35;;;;;;;25.85;4.00;;;;;;;11.33;98.06;99574.28;4830989;29;20057;-90
2022/09/27 07:40:03;;;;;;;24.55;3.53;;;;;;;11.32;97.64;99564.72;4846709;29;20129;-91
2022/09/27 07:42:29;;;;;;;21.10;4.07;;;;;;;11.33;97.53;99566.34;4840285;29;20041;-90
2022/09/27 07:44:56;;;;;;;19.35;3.20;;;;;;;11.34;97.30;99562.69;4827115;29;20037;-90
2022/09/27 07:47:27;;;;;;;24.38;4.18;;;;;;;11.35;96.85;99568.81;4863645;29;20063;-89
2022/09/27 07:50:22;;;;;;;22.00;3.25;;;;;;;11.35;96.58;99567.00;4847041;29;20049;-90
2022/09/27 07:53:04;;;;;;;23.80;4.25;;;;;;;11.36;96.38;99563.38;4848427;29;20128;-91
2022/09/27 07:55:42;;;;;;;20.13;3.53;;;;;;;11.39;95.89;99564.81;4844807;29;20042;-92
2022/09/27 07:58:19;;;;;;;24.67;3.95;;;;;;;11.36;95.53;99551.94;4823911;29;20048;-91
2022/09/27 08:00:50;;;;;;;17.95;3.38;;;;;;;11.37;95.85;99549.13;4835697;29;20502;-89
2022/09/27 08:03:20;;;;;;;24.83;3.58;;;;;;;11.37;95.21;99556.25;4844975;29;20040;-91
2022/09/27 08:05:48;;;;;;;23.08;3.10;;;;;;;11.33;95.34;99561.06;4829621;29;20073;-90
2022/09/27 08:08:16;;;;;;;23.50;3.65;;;;;;;11.38;95.58;99555.25;4831693;29;20041;-90
2022/09/27 08:10:46;;;;;;;24.35;3.65;;;;;;;11.37;95.36;99558.91;4844949;29;20109;-90
2022/09/27 08:13:19;;;;;;;22.30;3.55;;;;;;;11.40;95.64;99550.63;4840850;29;20124;-89
2022/09/27 08:15:51;;;;;;;;;;;;;;;11.32;95.81;99551.47;4828177;29;20049;-91
2022/09/27 08:18:20;;;;;;;24.95;3.75;;;;;;;11.36;96.13;99552.78;4830290;29;19977;-89
2022/09/27 08:21:07;;;;;;;19.77;3.10;;;;;;;11.40;96.09;99553.28;4851459;29;20128;-90
2022/09/27 08:23:42;;;;;;;21.45;3.83;;;;;;;11.45;96.00;99555.41;4829689;29;20037;-90
2022/09/27 08:26:28;;;;;;;21.90;4.43;;;;;;;11.47;96.16;99556.03;4829547;29;20051;-91
2022/09/27 08:29:04;;;;;;;25.08;3.10;;;;;;;11.46;96.40;99557.03;4828869;29;20041;-91
2022/09/27 08:31:36;;;;;;;17.65;3.20;;;;;;;11.42;96.69;99551.25;4812487;29;20033;-90
2022/09/27 08:34:06;;;;;;;23.20;3.63;;;;;;;11.41;97.22;99550.44;4841940;29;20789;-90
2022/09/27 08:36:36;;;;;;;23.25;3.40;;;;;;;11.36;97.61;99547.50;4829388;29;20394;-90
2022/09/27 08:39:06;;;;;;;18.95;3.45;;;;;;;11.38;97.58;99544.66;4838532;29;20049;-89
2022/09/27 08:41:52;;;;;;;17.90;3.17;;;;;;;11.35;97.90;99542.38;4814793;29;20093;-90
2022/09/27 08:44:23;;;;;;;17.50;2.58;;;;;;;11.37;97.91;99527.97;4838511;29;20041;-89
2022/09/27 08:47:16;;;;;;;21.33;3.40;;;;;;;11.36;98.85;99536.91;4826416;29;20126;-90
2022/09/27 08:49:48;;;;;;;18.70;3.35;;;;;;;11.35;99.34;99535.25;4833854;29;20128;-89
2022/09/27 08:52:26;;;;;;;20.52;3.00;;;;;;;11.38;99.66;99536.72;4812530;29;20269;-89
2022/09/27 08:55:01;;;;;;;21.92;3.60;;;;;;;11.36;99.90;99542.19;4827465;29;20555;-89
2022/09/27 08:57:31;;;;;;;19.10;3.05;;;;;;;11.36;100.00;99530.78;4831725;29;20061;-90
2022/09/27 09:00:01;;;;;;;24.83;4.15;;;;;;;11.35;100.00;99539.72;4814017;29;20128;-89
2022/09/27 09:02:31;;;;;;;24.98;4.18;;;;;;;11.33;100.00;99531.97;4805444;29;20065;-89
2022/09/27 09:05:12;;;;;;;21.17;3.47;;;;;;;11.37;100.00;99543.03;4821494;29;20044;-89
2022/09/27 09:07:53;;;;;;;25.00;3.35;;;;;;;11.33;100.00;99541.72;4829440;29;20483;-90
2022/09/27 09:13:52;;;;;;;27.00;4.00;;;;;;;11.27;100.00;99545.88;4834956;29;20101;-89
2022/09/27 09:16:45;;;;;;;18.38;3.45;;;;;;;11.27;100.00;99548.53;4825861;29;20081;-89
2022/09/27 09:19:35;;;;;;;19.10;2.95;;;;;;;11.24;100.00;99554.16;4827216;29;20144;-91
2022/09/27 09:22:37;;;;;;;17.58;3.42;;;;;;;11.21;100.00;99555.28;4828944;29;20439;-91
2022/09/27 09:25:30;;;;;;;25.02;3.88;;;;;;;11.20;100.00;99548.38;4827508;29;20490;-91
2022/09/27 09:28:20;;;;;;;22.10;3.75;;;;;;;11.20;100.00;99547.53;4829172;29;20048;-90
2022/09/27 09:31:15;;;;;;;19.05;3.35;;;;;;;11.20;100.00;99540.44;4829458;29;20487;-90
2022/09/27 09:33:52;;;;;;;18.65;3.25;;;;;;;11.20;100.00;99545.72;4821533;29;20045;-91
2022/09/27 09:36:43;;;;;;;18.15;3.20;;;;;;;11.19;100.00;99552.03;4835568;29;20053;-92
2022/09/27 09:39:17;;;;;;;25.58;4.47;;;;;;;11.15;100.00;99543.59;4839819;29;20049;-90
2022/09/27 09:42:14;;;;;;;21.13;2.75;;;;;;;11.15;100.00;99542.75;4821482;29;20053;-90
2022/09/27 09:45:00;;;;;;;24.80;3.85;;;;;;;11.15;100.00;99542.75;4830436;29;20042;-91
2022/09/27 09:47:44;;;;;;;20.10;3.75;;;;;;;11.15;100.00;99550.69;4834941;29;20049;-91
2022/09/27 09:50:31;;;;;;;21.73;3.75;;;;;;;11.13;100.00;99555.34;4830393;29;20038;-91
2022/09/27 09:53:11;;;;;;;17.50;3.38;;;;;;;11.12;100.00;99558.97;4814252;29;20041;-89
2022/09/27 09:55:47;;;;;;;21.00;3.53;;;;;;;11.12;100.00;99569.53;4830884;29;20033;-90
2022/09/27 09:58:35;;;;;;;21.30;3.13;;;;;;;11.11;100.00;99560.81;4818547;29;20049;-91
2022/09/27 10:01:17;;;;;;;18.35;3.50;;;;;;;11.07;100.00;99546.25;4831036;29;20928;-90
2022/09/27 10:03:45;;;;;;;18.25;2.92;;;;;;;11.08;100.00;99537.34;4831432;29;20038;-91
2022/09/27 10:06:15;;;;;;;25.70;3.90;;;;;;;11.10;100.00;99545.91;4836642;29;20045;-90
2022/09/27 10:08:44;;;;;;;18.58;3.00;;;;;;;11.12;100.00;99538.66;4830399;29;20152;-89
2022/09/27 10:11:38;;;;;;;19.15;2.90;;;;;;;11.12;100.00;99538.66;4841376;29;20048;-90
2022/09/27 10:14:16;;;;;;;13.70;2.75;;;;;;;11.16;100.00;99529.38;4845716;29;20045;-89
2022/09/27 10:16:50;;;;;;;25.20;3.33;;;;;;;11.22;100.00;99527.03;4817306;29;20502;-89
2022/09/27 10:19:29;;;;;;;21.70;3.67;;;;;;;11.28;100.00;99523.69;4832103;29;20056;-88
2022/09/27 10:22:32;;;;;;;17.00;2.53;;;;;;;11.27;100.00;99508.84;4803328;29;20410;-92
2022/09/27 10:25:09;;;;;;;22.67;3.17;;;;;;;11.27;100.00;99514.97;4810907;29;20038;-87
2022/09/27 10:28:07;;;;;;;13.18;2.20;;;;;;;11.24;100.00;99504.72;4819279;29;20050;-90
2022/09/27 10:30:39;;;;;;;14.07;3.00;;;;;;;11.25;100.00;99524.88;4826420;29;20038;-89
2022/09/27 10:33:22;;;;;;;20.90;3.38;;;;;;;11.28;100.00;99519.25;4829485;29;20057;-89
2022/09/27 10:36:01;;;;;;;14.13;2.92;;;;;;;11.29;100.00;99514.78;4820704;29;20037;-88
2022/09/27 10:38:35;;;;;;;11.13;2.45;;;;;;;11.27;100.00;99506.19;4811836;29;20053;-88
2022/09/27 10:41:35;;;;;;;12.98;1.88;;;;;;;11.21;100.00;99510.34;4795061;29;20381;-89
2022/09/27 10:44:17;;;;;;;14.95;2.45;;;;;;;11.21;100.00;99501.59;4815748;29;20041;-89
2022/09/27 10:46:52;;;;;;;13.48;2.33;;;;;;;11.21;100.00;99502.41;4793423;29;20050;-89
2022/09/27 10:49:41;;;;;;;18.02;2.17;;;;;;;11.18;100.00;99494.81;4822372;29;20042;-88
2022/09/27 10:52:29;;;;;;;8.00;2.17;;;;;;;11.18;100.00;99488.72;4816122;29;20042;-89
2022/09/27 10:55:05;;;;;;;11.63;2.20;;;;;;;11.19;100.00;99483.25;4842172;29;20042;-89
2022/09/27 10:57:35;;;;;;;7.50;1.40;;;;;;;11.18;100.00;99484.22;4822070;29;20045;-89
2022/09/27 11:00:20;;;;;;;16.50;2.47;;;;;;;11.16;100.00;99475.66;4831930;29;20042;-89
2022/09/27 11:03:15;;;;;;;10.52;1.70;;;;;;;11.18;100.00;99470.19;4819734;29;20048;-89
2022/09/27 11:05:54;;;;;;;10.07;1.13;;;;;;;11.11;100.00;99462.13;4827723;29;20502;-92
2022/09/27 11:08:29;;;;;;;10.20;1.38;;;;;;;11.12;100.00;99472.53;4827840;29;20038;-90
2022/09/27 11:11:24;;;;;;;8.98;1.50;;;;;;;11.11;100.00;99473.53;4827170;29;20057;-90
2022/09/27 11:14:19;;;;;;;8.48;1.20;;;;;;;11.07;100.00;99472.22;4822733;29;20080;-89
2022/09/27 11:17:10;;;;;;;6.38;1.27;;;;;;;11.03;100.00;99486.78;4810962;29;20038;-90
2022/09/27 11:20:06;;;;;;;8.00;1.40;;;;;;;11.08;100.00;99471.22;4826893;29;20124;-90
2022/09/27 11:23:11;;;;;;;7.40;1.63;;;;;;;11.04;100.00;99468.09;4823130;29;20042;-90
2022/09/27 11:25:56;;;;;;;7.97;1.75;;;;;;;11.02;100.00;99470.09;4798204;29;20081;-90
2022/09/27 11:28:47;;;;;;;5.35;1.30;;;;;;;11.04;100.00;99473.38;4819368;29;20053;-91
2022/09/27 11:32:17;;;;;;;7.30;1.40;;;;;;;11.02;100.00;99461.34;4788053;29;20442;-90
2022/09/27 11:35:27;;;;;;;7.40;1.10;;;;;;;10.98;100.00;99460.03;4821579;29;20062;-92
2022/09/27 11:37:57;;;;;;;12.20;1.70;;;;;;;10.95;100.00;99457.72;4791490;29;20575;-92
2022/09/27 11:40:46;;;;;;;11.50;1.27;;;;;;;10.97;100.00;99464.50;4793075;29;20093;-93
2022/09/27 11:43:22;;;;;;;10.63;1.30;;;;;;;10.98;100.00;99462.66;4807514;29;20046;-91
2022/09/27 11:46:06;;;;;;;8.52;2.10;;;;;;;10.97;100.00;99450.44;4782052;29;20508;-91
2022/09/27 11:48:58;;;;;;;10.38;1.85;;;;;;;10.95;100.00;99436.56;4808012;29;20046;-91
2022/09/27 11:51:50;;;;;;;10.25;1.58;;;;;;;10.95;100.00;99442.69;4835181;29;20377;-91
2022/09/27 11:54:58;;;;;;;10.27;1.42;;;;;;;10.97;100.00;99438.06;4819770;29;20125;-91
2022/09/27 11:57:30;;;;;;;12.40;1.42;;;;;;;10.96;100.00;99431.09;4785418;29;20085;-90
2022/09/27 12:00:17;;;;;;;8.50;1.50;;;;;;;10.97;100.00;99435.41;4797651;29;20042;-91
2022/09/27 12:03:16;;;;;;;9.48;1.58;;;;;;;10.95;100.00;99434.75;4826082;29;20129;-90
2022/09/27 12:06:01;;;;;;;12.30;1.75;;;;;;;10.98;100.00;99438.88;4791370;29;20040;-91
2022/09/27 12:08:46;;;;;;;12.27;1.90;;;;;;;10.92;100.00;99440.38;4836289;29;20038;-92
2022/09/27 12:11:27;;;;;;;9.45;1.98;;;;;;;10.89;100.00;99425.69;4827557;29;20087;-90
2022/09/27 12:14:01;;;;;;;4.57;1.20;;;;;;;10.88;100.00;99428.50;4818889;29;20090;-90
2022/09/27 12:16:34;;;;;;;9.05;1.25;;;;;;;10.92;100.00;99429.81;4796350;29;20034;-90
2022/09/27 12:19:09;;;;;;;6.20;1.25;;;;;;;10.90;100.00;99422.06;4841099;29;20126;-91